sensor_id;sensor_type;location;lat;lon;timestamp;P1;durP1;ratioP1;P2;durP2;ratioP2
61911;SDS011;49973;52.084;5.412;2023-07-30T00:01:20;2.93;;;1.73;;
61911;SDS011;49973;52.084;5.412;2023-07-30T00:03:50;7.30;;;2.37;;
61911;SDS011;49973;52.084;5.412;2023-07-30T00:06:19;7.53;;;1.60;;
61911;SDS011;49973;52.084;5.412;2023-07-30T00:08:48;5.80;;;1.40;;
61911;SDS011;49973;52.084;5.412;2023-07-30T00:11:17;3.50;;;1.40;;
61911;SDS011;49973;52.084;5.412;2023-07-30T00:13:48;3.40;;;1.60;;
61911;SDS011;49973;52.084;5.412;2023-07-30T00:16:17;6.83;;;1.33;;
61911;SDS011;49973;52.084;5.412;2023-07-30T00:18:46;3.77;;;2.13;;
61911;SDS011;49973;52.084;5.412;2023-07-30T00:21:15;7.50;;;1.47;;
61911;SDS011;49973;52.084;5.412;2023-07-30T00:23:44;6.60;;;1.67;;
61911;SDS011;49973;52.084;5.412;2023-07-30T00:26:14;4.47;;;1.37;;
61911;SDS011;49973;52.084;5.412;2023-07-30T00:28:43;1.97;;;1.40;;
61911;SDS011;49973;52.084;5.412;2023-07-30T00:31:16;8.53;;;2.00;;
61911;SDS011;49973;52.084;5.412;2023-07-30T00:33:46;5.33;;;1.53;;
61911;SDS011;49973;52.084;5.412;2023-07-30T00:36:18;6.07;;;2.10;;
61911;SDS011;49973;52.084;5.412;2023-07-30T00:38:47;6.43;;;1.70;;
61911;SDS011;49973;52.084;5.412;2023-07-30T00:41:17;2.90;;;1.60;;
61911;SDS011;49973;52.084;5.412;2023-07-30T00:43:46;2.37;;;1.60;;
61911;SDS011;49973;52.084;5.412;2023-07-30T00:46:17;10.30;;;2.05;;
61911;SDS011;49973;52.084;5.412;2023-07-30T00:48:46;3.87;;;1.93;;
61911;SDS011;49973;52.084;5.412;2023-07-30T00:51:15;5.23;;;2.00;;
61911;SDS011;49973;52.084;5.412;2023-07-30T00:53:45;8.60;;;2.73;;
61911;SDS011;49973;52.084;5.412;2023-07-30T00:56:17;6.17;;;1.90;;
61911;SDS011;49973;52.084;5.412;2023-07-30T00:58:46;3.73;;;2.00;;
61911;SDS011;49973;52.084;5.412;2023-07-30T01:01:18;3.47;;;1.60;;
61911;SDS011;49973;52.084;5.412;2023-07-30T01:03:47;6.57;;;2.33;;
61911;SDS011;49973;52.084;5.412;2023-07-30T01:06:17;6.77;;;2.33;;
61911;SDS011;49973;52.084;5.412;2023-07-30T01:08:47;7.37;;;2.03;;
61911;SDS011;49973;52.084;5.412;2023-07-30T01:11:17;3.50;;;2.27;;
61911;SDS011;49973;52.084;5.412;2023-07-30T01:13:46;6.73;;;2.20;;
61911;SDS011;49973;52.084;5.412;2023-07-30T01:16:16;5.80;;;2.03;;
61911;SDS011;49973;52.084;5.412;2023-07-30T01:18:47;4.87;;;2.13;;
61911;SDS011;49973;52.084;5.412;2023-07-30T01:21:19;6.80;;;2.67;;
61911;SDS011;49973;52.084;5.412;2023-07-30T01:23:48;9.90;;;2.33;;
61911;SDS011;49973;52.084;5.412;2023-07-30T01:26:19;5.73;;;2.17;;
61911;SDS011;49973;52.084;5.412;2023-07-30T01:28:54;5.67;;;1.77;;
61911;SDS011;49973;52.084;5.412;2023-07-30T01:31:26;7.40;;;2.27;;
61911;SDS011;49973;52.084;5.412;2023-07-30T01:33:58;6.30;;;1.97;;
61911;SDS011;49973;52.084;5.412;2023-07-30T01:36:31;7.30;;;1.80;;
61911;SDS011;49973;52.084;5.412;2023-07-30T01:39:01;4.10;;;2.07;;
61911;SDS011;49973;52.084;5.412;2023-07-30T01:41:31;7.03;;;2.10;;
61911;SDS011;49973;52.084;5.412;2023-07-30T01:44:00;7.60;;;2.00;;
61911;SDS011;49973;52.084;5.412;2023-07-30T01:46:29;10.07;;;2.20;;
61911;SDS011;49973;52.084;5.412;2023-07-30T01:48:59;10.20;;;1.63;;
61911;SDS011;49973;52.084;5.412;2023-07-30T01:51:28;11.70;;;2.23;;
61911;SDS011;49973;52.084;5.412;2023-07-30T01:53:59;5.90;;;1.83;;
61911;SDS011;49973;52.084;5.412;2023-07-30T01:56:28;5.43;;;1.97;;
61911;SDS011;49973;52.084;5.412;2023-07-30T01:58:57;4.83;;;1.97;;
61911;SDS011;49973;52.084;5.412;2023-07-30T02:01:26;7.13;;;2.03;;
61911;SDS011;49973;52.084;5.412;2023-07-30T02:03:56;7.43;;;2.13;;
61911;SDS011;49973;52.084;5.412;2023-07-30T02:06:25;5.47;;;2.20;;
61911;SDS011;49973;52.084;5.412;2023-07-30T02:08:54;6.60;;;2.40;;
61911;SDS011;49973;52.084;5.412;2023-07-30T02:11:24;11.10;;;2.07;;
61911;SDS011;49973;52.084;5.412;2023-07-30T02:13:54;8.80;;;2.43;;
61911;SDS011;49973;52.084;5.412;2023-07-30T02:16:23;11.47;;;2.17;;
61911;SDS011;49973;52.084;5.412;2023-07-30T02:18:52;9.03;;;2.60;;
61911;SDS011;49973;52.084;5.412;2023-07-30T02:21:21;8.83;;;2.30;;
61911;SDS011;49973;52.084;5.412;2023-07-30T02:23:50;10.10;;;3.00;;
61911;SDS011;49973;52.084;5.412;2023-07-30T02:26:19;7.70;;;2.20;;
61911;SDS011;49973;52.084;5.412;2023-07-30T02:28:50;11.30;;;2.63;;
61911;SDS011;49973;52.084;5.412;2023-07-30T02:31:19;9.03;;;2.30;;
61911;SDS011;49973;52.084;5.412;2023-07-30T02:33:48;6.63;;;2.80;;
61911;SDS011;49973;52.084;5.412;2023-07-30T02:36:17;7.37;;;2.60;;
61911;SDS011;49973;52.084;5.412;2023-07-30T02:38:46;14.50;;;1.93;;
61911;SDS011;49973;52.084;5.412;2023-07-30T02:41:15;16.53;;;3.00;;
61911;SDS011;49973;52.084;5.412;2023-07-30T02:43:44;15.07;;;2.77;;
61911;SDS011;49973;52.084;5.412;2023-07-30T02:46:16;10.07;;;2.47;;
61911;SDS011;49973;52.084;5.412;2023-07-30T02:48:45;5.67;;;2.10;;
61911;SDS011;49973;52.084;5.412;2023-07-30T02:51:14;7.43;;;2.17;;
61911;SDS011;49973;52.084;5.412;2023-07-30T02:53:43;4.83;;;2.30;;
61911;SDS011;49973;52.084;5.412;2023-07-30T02:56:12;10.13;;;2.37;;
61911;SDS011;49973;52.084;5.412;2023-07-30T02:58:41;11.50;;;2.90;;
61911;SDS011;49973;52.084;5.412;2023-07-30T03:01:10;8.87;;;2.30;;
61911;SDS011;49973;52.084;5.412;2023-07-30T03:03:40;13.20;;;2.70;;
61911;SDS011;49973;52.084;5.412;2023-07-30T03:06:09;10.33;;;2.60;;
61911;SDS011;49973;52.084;5.412;2023-07-30T03:08:38;21.40;;;3.37;;
61911;SDS011;49973;52.084;5.412;2023-07-30T03:11:07;13.70;;;2.80;;
61911;SDS011;49973;52.084;5.412;2023-07-30T03:13:36;17.50;;;2.60;;
61911;SDS011;49973;52.084;5.412;2023-07-30T03:16:05;13.37;;;3.40;;
61911;SDS011;49973;52.084;5.412;2023-07-30T03:18:34;9.87;;;2.80;;
61911;SDS011;49973;52.084;5.412;2023-07-30T03:21:04;5.07;;;2.03;;
61911;SDS011;49973;52.084;5.412;2023-07-30T03:23:33;10.90;;;2.70;;
61911;SDS011;49973;52.084;5.412;2023-07-30T03:26:04;13.77;;;3.07;;
61911;SDS011;49973;52.084;5.412;2023-07-30T03:28:32;6.77;;;2.70;;
61911;SDS011;49973;52.084;5.412;2023-07-30T03:31:05;14.47;;;3.20;;
61911;SDS011;49973;52.084;5.412;2023-07-30T03:33:34;7.60;;;2.77;;
61911;SDS011;49973;52.084;5.412;2023-07-30T03:36:05;15.60;;;3.03;;
61911;SDS011;49973;52.084;5.412;2023-07-30T03:38:34;11.30;;;3.00;;
61911;SDS011;49973;52.084;5.412;2023-07-30T03:41:04;14.33;;;2.80;;
61911;SDS011;49973;52.084;5.412;2023-07-30T03:43:33;17.77;;;3.30;;
61911;SDS011;49973;52.084;5.412;2023-07-30T03:46:02;11.90;;;3.10;;
61911;SDS011;49973;52.084;5.412;2023-07-30T03:48:32;12.50;;;3.47;;
61911;SDS011;49973;52.084;5.412;2023-07-30T03:51:01;12.63;;;3.57;;
61911;SDS011;49973;52.084;5.412;2023-07-30T03:53:32;12.87;;;3.27;;
61911;SDS011;49973;52.084;5.412;2023-07-30T03:56:01;15.67;;;3.90;;
61911;SDS011;49973;52.084;5.412;2023-07-30T03:58:33;11.73;;;3.47;;
61911;SDS011;49973;52.084;5.412;2023-07-30T04:01:03;9.00;;;3.80;;
61911;SDS011;49973;52.084;5.412;2023-07-30T04:03:33;16.13;;;3.87;;
61911;SDS011;49973;52.084;5.412;2023-07-30T04:06:02;16.97;;;4.13;;
61911;SDS011;49973;52.084;5.412;2023-07-30T04:08:32;16.03;;;3.70;;
61911;SDS011;49973;52.084;5.412;2023-07-30T04:11:01;32.70;;;4.30;;
61911;SDS011;49973;52.084;5.412;2023-07-30T04:13:31;14.33;;;3.77;;
61911;SDS011;49973;52.084;5.412;2023-07-30T04:15:59;21.50;;;4.13;;
61911;SDS011;49973;52.084;5.412;2023-07-30T04:18:28;18.77;;;4.13;;
61911;SDS011;49973;52.084;5.412;2023-07-30T04:20:57;10.50;;;4.00;;
61911;SDS011;49973;52.084;5.412;2023-07-30T04:23:26;20.70;;;3.63;;
61911;SDS011;49973;52.084;5.412;2023-07-30T04:25:56;15.67;;;4.43;;
61911;SDS011;49973;52.084;5.412;2023-07-30T04:28:26;17.93;;;4.63;;
61911;SDS011;49973;52.084;5.412;2023-07-30T04:30:55;12.43;;;4.07;;
61911;SDS011;49973;52.084;5.412;2023-07-30T04:33:24;18.13;;;4.50;;
61911;SDS011;49973;52.084;5.412;2023-07-30T04:35:54;21.27;;;4.50;;
61911;SDS011;49973;52.084;5.412;2023-07-30T04:38:23;22.93;;;4.80;;
61911;SDS011;49973;52.084;5.412;2023-07-30T04:40:52;28.47;;;5.70;;
61911;SDS011;49973;52.084;5.412;2023-07-30T04:43:22;21.27;;;4.70;;
61911;SDS011;49973;52.084;5.412;2023-07-30T04:45:56;22.53;;;4.87;;
61911;SDS011;49973;52.084;5.412;2023-07-30T04:48:26;13.87;;;5.47;;
61911;SDS011;49973;52.084;5.412;2023-07-30T04:50:55;16.47;;;4.90;;
61911;SDS011;49973;52.084;5.412;2023-07-30T04:53:25;13.57;;;4.47;;
61911;SDS011;49973;52.084;5.412;2023-07-30T04:55:54;19.57;;;4.80;;
61911;SDS011;49973;52.084;5.412;2023-07-30T04:58:29;22.03;;;5.17;;
61911;SDS011;49973;52.084;5.412;2023-07-30T05:00:58;32.97;;;5.40;;
61911;SDS011;49973;52.084;5.412;2023-07-30T05:03:27;21.33;;;5.07;;
61911;SDS011;49973;52.084;5.412;2023-07-30T05:05:56;22.23;;;4.97;;
61911;SDS011;49973;52.084;5.412;2023-07-30T05:08:27;25.03;;;5.10;;
61911;SDS011;49973;52.084;5.412;2023-07-30T05:10:56;20.13;;;5.37;;
61911;SDS011;49973;52.084;5.412;2023-07-30T05:13:26;22.93;;;5.83;;
61911;SDS011;49973;52.084;5.412;2023-07-30T05:15:56;24.47;;;5.20;;
61911;SDS011;49973;52.084;5.412;2023-07-30T05:18:25;16.73;;;4.80;;
61911;SDS011;49973;52.084;5.412;2023-07-30T05:20:54;10.93;;;4.47;;
61911;SDS011;49973;52.084;5.412;2023-07-30T05:23:24;19.50;;;6.30;;
61911;SDS011;49973;52.084;5.412;2023-07-30T05:25:53;17.57;;;5.83;;
61911;SDS011;49973;52.084;5.412;2023-07-30T05:28:22;17.47;;;5.10;;
61911;SDS011;49973;52.084;5.412;2023-07-30T05:30:51;15.00;;;5.23;;
61911;SDS011;49973;52.084;5.412;2023-07-30T05:33:22;21.83;;;5.80;;
61911;SDS011;49973;52.084;5.412;2023-07-30T05:35:51;13.83;;;5.97;;
61911;SDS011;49973;52.084;5.412;2023-07-30T05:38:20;21.23;;;5.77;;
61911;SDS011;49973;52.084;5.412;2023-07-30T05:40:49;24.63;;;7.07;;
61911;SDS011;49973;52.084;5.412;2023-07-30T05:43:18;22.83;;;5.70;;
61911;SDS011;49973;52.084;5.412;2023-07-30T05:45:47;29.23;;;6.30;;
61911;SDS011;49973;52.084;5.412;2023-07-30T05:48:16;31.90;;;6.60;;
61911;SDS011;49973;52.084;5.412;2023-07-30T05:50:46;18.27;;;5.30;;
61911;SDS011;49973;52.084;5.412;2023-07-30T05:53:15;23.43;;;5.70;;
61911;SDS011;49973;52.084;5.412;2023-07-30T05:55:44;16.07;;;5.60;;
61911;SDS011;49973;52.084;5.412;2023-07-30T05:58:13;19.83;;;6.33;;
61911;SDS011;49973;52.084;5.412;2023-07-30T06:00:42;17.83;;;6.17;;
61911;SDS011;49973;52.084;5.412;2023-07-30T06:03:11;18.23;;;6.10;;
61911;SDS011;49973;52.084;5.412;2023-07-30T06:05:40;20.20;;;5.70;;
61911;SDS011;49973;52.084;5.412;2023-07-30T06:08:11;15.27;;;6.50;;
61911;SDS011;49973;52.084;5.412;2023-07-30T06:10:40;14.07;;;5.77;;
61911;SDS011;49973;52.084;5.412;2023-07-30T06:13:09;17.63;;;6.53;;
61911;SDS011;49973;52.084;5.412;2023-07-30T06:15:38;19.50;;;7.13;;
61911;SDS011;49973;52.084;5.412;2023-07-30T06:18:07;28.87;;;7.17;;
61911;SDS011;49973;52.084;5.412;2023-07-30T06:20:36;29.70;;;6.67;;
61911;SDS011;49973;52.084;5.412;2023-07-30T06:23:05;21.70;;;6.47;;
61911;SDS011;49973;52.084;5.412;2023-07-30T06:25:40;19.87;;;7.17;;
61911;SDS011;49973;52.084;5.412;2023-07-30T06:28:09;22.80;;;6.93;;
61911;SDS011;49973;52.084;5.412;2023-07-30T06:30:38;16.50;;;6.80;;
61911;SDS011;49973;52.084;5.412;2023-07-30T06:33:07;22.13;;;6.73;;
61911;SDS011;49973;52.084;5.412;2023-07-30T06:35:35;31.87;;;6.57;;
61911;SDS011;49973;52.084;5.412;2023-07-30T06:38:05;33.10;;;7.70;;
61911;SDS011;49973;52.084;5.412;2023-07-30T06:40:37;20.33;;;6.83;;
61911;SDS011;49973;52.084;5.412;2023-07-30T06:43:07;16.57;;;6.40;;
61911;SDS011;49973;52.084;5.412;2023-07-30T06:45:36;18.60;;;6.47;;
61911;SDS011;49973;52.084;5.412;2023-07-30T06:48:05;12.17;;;5.33;;
61911;SDS011;49973;52.084;5.412;2023-07-30T06:50:34;17.70;;;5.97;;
61911;SDS011;49973;52.084;5.412;2023-07-30T06:53:03;22.17;;;5.90;;
61911;SDS011;49973;52.084;5.412;2023-07-30T06:55:32;18.13;;;5.93;;
61911;SDS011;49973;52.084;5.412;2023-07-30T06:58:01;19.93;;;5.50;;
61911;SDS011;49973;52.084;5.412;2023-07-30T07:00:34;23.37;;;6.20;;
61911;SDS011;49973;52.084;5.412;2023-07-30T07:03:03;21.23;;;5.53;;
61911;SDS011;49973;52.084;5.412;2023-07-30T07:05:33;20.40;;;5.23;;
61911;SDS011;49973;52.084;5.412;2023-07-30T07:08:01;17.57;;;4.60;;
61911;SDS011;49973;52.084;5.412;2023-07-30T07:10:31;15.93;;;4.73;;
61911;SDS011;49973;52.084;5.412;2023-07-30T07:13:00;9.77;;;4.77;;
61911;SDS011;49973;52.084;5.412;2023-07-30T07:15:29;19.30;;;5.37;;
61911;SDS011;49973;52.084;5.412;2023-07-30T07:18:00;22.43;;;5.50;;
61911;SDS011;49973;52.084;5.412;2023-07-30T07:20:29;19.80;;;5.50;;
61911;SDS011;49973;52.084;5.412;2023-07-30T07:22:58;26.63;;;4.87;;
61911;SDS011;49973;52.084;5.412;2023-07-30T07:25:27;14.63;;;4.53;;
61911;SDS011;49973;52.084;5.412;2023-07-30T07:27:56;12.83;;;4.77;;
61911;SDS011;49973;52.084;5.412;2023-07-30T07:30:25;15.23;;;4.67;;
61911;SDS011;49973;52.084;5.412;2023-07-30T07:32:54;15.77;;;4.67;;
61911;SDS011;49973;52.084;5.412;2023-07-30T07:35:24;9.43;;;3.47;;
61911;SDS011;49973;52.084;5.412;2023-07-30T07:37:53;25.30;;;4.33;;
61911;SDS011;49973;52.084;5.412;2023-07-30T07:40:23;18.37;;;4.13;;
61911;SDS011;49973;52.084;5.412;2023-07-30T07:42:52;19.57;;;4.70;;
61911;SDS011;49973;52.084;5.412;2023-07-30T07:45:23;10.97;;;3.63;;
61911;SDS011;49973;52.084;5.412;2023-07-30T07:47:52;16.40;;;3.67;;
61911;SDS011;49973;52.084;5.412;2023-07-30T07:50:25;11.23;;;3.33;;
61911;SDS011;49973;52.084;5.412;2023-07-30T07:52:55;14.63;;;3.67;;
61911;SDS011;49973;52.084;5.412;2023-07-30T07:55:24;24.40;;;3.20;;
61911;SDS011;49973;52.084;5.412;2023-07-30T07:57:53;17.70;;;3.83;;
61911;SDS011;49973;52.084;5.412;2023-07-30T08:00:22;18.77;;;3.70;;
61911;SDS011;49973;52.084;5.412;2023-07-30T08:02:51;9.83;;;3.40;;
61911;SDS011;49973;52.084;5.412;2023-07-30T08:05:21;14.40;;;3.50;;
61911;SDS011;49973;52.084;5.412;2023-07-30T08:07:52;18.00;;;3.17;;
61911;SDS011;49973;52.084;5.412;2023-07-30T08:10:21;15.00;;;3.37;;
61911;SDS011;49973;52.084;5.412;2023-07-30T08:12:50;10.97;;;4.00;;
61911;SDS011;49973;52.084;5.412;2023-07-30T08:15:19;14.60;;;3.20;;
61911;SDS011;49973;52.084;5.412;2023-07-30T08:17:48;14.47;;;4.07;;
61911;SDS011;49973;52.084;5.412;2023-07-30T08:20:18;18.43;;;4.23;;
61911;SDS011;49973;52.084;5.412;2023-07-30T08:22:46;12.23;;;3.83;;
61911;SDS011;49973;52.084;5.412;2023-07-30T08:25:16;14.77;;;3.03;;
61911;SDS011;49973;52.084;5.412;2023-07-30T08:27:45;10.70;;;3.23;;
61911;SDS011;49973;52.084;5.412;2023-07-30T08:30:14;8.17;;;3.00;;
61911;SDS011;49973;52.084;5.412;2023-07-30T08:32:43;12.13;;;2.80;;
61911;SDS011;49973;52.084;5.412;2023-07-30T08:35:12;13.53;;;3.37;;
61911;SDS011;49973;52.084;5.412;2023-07-30T08:37:41;10.33;;;2.60;;
61911;SDS011;49973;52.084;5.412;2023-07-30T08:40:10;8.60;;;2.63;;
61911;SDS011;49973;52.084;5.412;2023-07-30T08:42:43;10.10;;;2.70;;
61911;SDS011;49973;52.084;5.412;2023-07-30T08:45:12;17.07;;;2.73;;
61911;SDS011;49973;52.084;5.412;2023-07-30T08:47:41;7.57;;;2.07;;
61911;SDS011;49973;52.084;5.412;2023-07-30T08:50:10;12.13;;;2.77;;
61911;SDS011;49973;52.084;5.412;2023-07-30T08:52:39;11.40;;;2.43;;
61911;SDS011;49973;52.084;5.412;2023-07-30T08:55:09;13.67;;;2.40;;
61911;SDS011;49973;52.084;5.412;2023-07-30T08:57:40;13.43;;;2.93;;
61911;SDS011;49973;52.084;5.412;2023-07-30T09:00:12;8.53;;;2.63;;
61911;SDS011;49973;52.084;5.412;2023-07-30T09:02:44;9.90;;;2.20;;
61911;SDS011;49973;52.084;5.412;2023-07-30T09:05:16;8.10;;;2.20;;
61911;SDS011;49973;52.084;5.412;2023-07-30T09:07:45;7.57;;;2.93;;
61911;SDS011;49973;52.084;5.412;2023-07-30T09:10:14;10.67;;;3.00;;
61911;SDS011;49973;52.084;5.412;2023-07-30T09:12:44;14.93;;;2.63;;
61911;SDS011;49973;52.084;5.412;2023-07-30T09:15:15;8.23;;;2.13;;
61911;SDS011;49973;52.084;5.412;2023-07-30T09:17:45;9.97;;;2.93;;
61911;SDS011;49973;52.084;5.412;2023-07-30T09:20:13;13.10;;;3.20;;
61911;SDS011;49973;52.084;5.412;2023-07-30T09:22:45;15.37;;;3.47;;
61911;SDS011;49973;52.084;5.412;2023-07-30T09:25:17;11.60;;;3.00;;
61911;SDS011;49973;52.084;5.412;2023-07-30T09:27:49;16.00;;;2.23;;
61911;SDS011;49973;52.084;5.412;2023-07-30T09:30:22;14.33;;;2.30;;
61911;SDS011;49973;52.084;5.412;2023-07-30T09:32:52;12.13;;;2.27;;
61911;SDS011;49973;52.084;5.412;2023-07-30T09:35:22;10.53;;;2.03;;
61911;SDS011;49973;52.084;5.412;2023-07-30T09:37:57;12.23;;;2.30;;
61911;SDS011;49973;52.084;5.412;2023-07-30T09:40:30;5.47;;;1.73;;
61911;SDS011;49973;52.084;5.412;2023-07-30T09:43:01;14.43;;;2.30;;
61911;SDS011;49973;52.084;5.412;2023-07-30T09:45:32;10.47;;;2.17;;
61911;SDS011;49973;52.084;5.412;2023-07-30T09:48:03;8.63;;;2.03;;
61911;SDS011;49973;52.084;5.412;2023-07-30T09:50:33;12.97;;;2.70;;
61911;SDS011;49973;52.084;5.412;2023-07-30T09:53:02;13.40;;;2.13;;
61911;SDS011;49973;52.084;5.412;2023-07-30T09:55:32;7.93;;;2.73;;
61911;SDS011;49973;52.084;5.412;2023-07-30T09:58:02;5.37;;;1.90;;
61911;SDS011;49973;52.084;5.412;2023-07-30T10:00:32;7.20;;;1.93;;
61911;SDS011;49973;52.084;5.412;2023-07-30T10:03:01;8.67;;;2.83;;
61911;SDS011;49973;52.084;5.412;2023-07-30T10:05:32;16.70;;;7.30;;
61911;SDS011;49973;52.084;5.412;2023-07-30T10:08:04;12.60;;;3.43;;
61911;SDS011;49973;52.084;5.412;2023-07-30T10:10:36;5.23;;;3.17;;
61911;SDS011;49973;52.084;5.412;2023-07-30T10:13:07;3.73;;;1.30;;
61911;SDS011;49973;52.084;5.412;2023-07-30T10:15:38;11.57;;;3.83;;
61911;SDS011;49973;52.084;5.412;2023-07-30T10:18:07;7.63;;;2.07;;
61911;SDS011;49973;52.084;5.412;2023-07-30T10:20:36;22.97;;;12.40;;
61911;SDS011;49973;52.084;5.412;2023-07-30T10:23:06;8.20;;;2.20;;
61911;SDS011;49973;52.084;5.412;2023-07-30T10:25:45;14.90;;;4.83;;
61911;SDS011;49973;52.084;5.412;2023-07-30T10:31:06;10.17;;;2.30;;
61911;SDS011;49973;52.084;5.412;2023-07-30T10:33:43;8.73;;;3.57;;
61911;SDS011;49973;52.084;5.412;2023-07-30T10:36:14;5.60;;;1.60;;
61911;SDS011;49973;52.084;5.412;2023-07-30T10:38:44;5.53;;;2.03;;
61911;SDS011;49973;52.084;5.412;2023-07-30T10:41:14;5.10;;;1.53;;
61911;SDS011;49973;52.084;5.412;2023-07-30T10:43:47;5.80;;;1.53;;
61911;SDS011;49973;52.084;5.412;2023-07-30T10:46:18;4.90;;;1.07;;
61911;SDS011;49973;52.084;5.412;2023-07-30T10:48:47;2.97;;;1.27;;
61911;SDS011;49973;52.084;5.412;2023-07-30T10:51:17;3.53;;;1.23;;
61911;SDS011;49973;52.084;5.412;2023-07-30T10:53:47;6.63;;;1.70;;
61911;SDS011;49973;52.084;5.412;2023-07-30T10:56:18;9.57;;;3.03;;
61911;SDS011;49973;52.084;5.412;2023-07-30T10:58:51;2.63;;;1.97;;
61911;SDS011;49973;52.084;5.412;2023-07-30T11:01:23;4.93;;;2.57;;
61911;SDS011;49973;52.084;5.412;2023-07-30T11:03:53;7.40;;;2.63;;
61911;SDS011;49973;52.084;5.412;2023-07-30T11:06:22;7.90;;;3.17;;
61911;SDS011;49973;52.084;5.412;2023-07-30T11:08:51;9.67;;;2.87;;
61911;SDS011;49973;52.084;5.412;2023-07-30T11:11:20;12.00;;;5.33;;
61911;SDS011;49973;52.084;5.412;2023-07-30T11:13:52;9.27;;;2.20;;
61911;SDS011;49973;52.084;5.412;2023-07-30T11:16:21;6.77;;;1.40;;
61911;SDS011;49973;52.084;5.412;2023-07-30T11:18:50;6.10;;;1.03;;
61911;SDS011;49973;52.084;5.412;2023-07-30T11:21:19;8.60;;;1.63;;
61911;SDS011;49973;52.084;5.412;2023-07-30T11:23:50;3.40;;;1.70;;
61911;SDS011;49973;52.084;5.412;2023-07-30T11:26:19;5.87;;;1.13;;
61911;SDS011;49973;52.084;5.412;2023-07-30T11:28:48;8.07;;;1.67;;
61911;SDS011;49973;52.084;5.412;2023-07-30T11:31:19;4.37;;;1.30;;
61911;SDS011;49973;52.084;5.412;2023-07-30T11:34:00;4.67;;;1.47;;
61911;SDS011;49973;52.084;5.412;2023-07-30T11:36:29;6.30;;;2.43;;
61911;SDS011;49973;52.084;5.412;2023-07-30T11:38:57;2.67;;;1.30;;
61911;SDS011;49973;52.084;5.412;2023-07-30T11:41:27;4.60;;;1.67;;
61911;SDS011;49973;52.084;5.412;2023-07-30T11:43:56;3.77;;;1.10;;
61911;SDS011;49973;52.084;5.412;2023-07-30T11:46:26;4.03;;;1.23;;
61911;SDS011;49973;52.084;5.412;2023-07-30T11:49:10;3.90;;;1.03;;
61911;SDS011;49973;52.084;5.412;2023-07-30T11:51:39;4.60;;;1.13;;
61911;SDS011;49973;52.084;5.412;2023-07-30T11:54:18;7.23;;;1.30;;
61911;SDS011;49973;52.084;5.412;2023-07-30T11:56:47;6.83;;;1.43;;
61911;SDS011;49973;52.084;5.412;2023-07-30T11:59:21;1.67;;;0.70;;
61911;SDS011;49973;52.084;5.412;2023-07-30T12:01:52;6.67;;;0.83;;
61911;SDS011;49973;52.084;5.412;2023-07-30T12:04:21;8.97;;;1.10;;
61911;SDS011;49973;52.084;5.412;2023-07-30T12:06:52;4.57;;;0.77;;
61911;SDS011;49973;52.084;5.412;2023-07-30T12:09:22;3.80;;;1.00;;
61911;SDS011;49973;52.084;5.412;2023-07-30T12:11:53;4.20;;;1.43;;
61911;SDS011;49973;52.084;5.412;2023-07-30T12:14:24;7.03;;;1.10;;
61911;SDS011;49973;52.084;5.412;2023-07-30T12:16:59;4.17;;;1.00;;
61911;SDS011;49973;52.084;5.412;2023-07-30T12:19:28;2.93;;;0.80;;
61911;SDS011;49973;52.084;5.412;2023-07-30T12:21:57;6.63;;;1.07;;
61911;SDS011;49973;52.084;5.412;2023-07-30T12:24:26;3.57;;;1.47;;
61911;SDS011;49973;52.084;5.412;2023-07-30T12:26:55;2.17;;;0.93;;
61911;SDS011;49973;52.084;5.412;2023-07-30T12:29:24;8.20;;;1.07;;
61911;SDS011;49973;52.084;5.412;2023-07-30T12:31:53;5.67;;;0.90;;
61911;SDS011;49973;52.084;5.412;2023-07-30T12:34:24;2.60;;;0.90;;
61911;SDS011;49973;52.084;5.412;2023-07-30T12:36:53;4.40;;;0.80;;
61911;SDS011;49973;52.084;5.412;2023-07-30T12:39:23;4.03;;;0.73;;
61911;SDS011;49973;52.084;5.412;2023-07-30T12:41:52;5.43;;;1.53;;
61911;SDS011;49973;52.084;5.412;2023-07-30T12:44:20;2.97;;;0.80;;
61911;SDS011;49973;52.084;5.412;2023-07-30T12:46:49;9.23;;;1.03;;
61911;SDS011;49973;52.084;5.412;2023-07-30T12:49:18;8.57;;;1.37;;
61911;SDS011;49973;52.084;5.412;2023-07-30T12:51:49;4.93;;;0.87;;
61911;SDS011;49973;52.084;5.412;2023-07-30T12:54:17;2.73;;;0.90;;
61911;SDS011;49973;52.084;5.412;2023-07-30T12:56:46;1.10;;;0.60;;
61911;SDS011;49973;52.084;5.412;2023-07-30T12:59:15;3.27;;;0.97;;
61911;SDS011;49973;52.084;5.412;2023-07-30T13:01:44;3.83;;;0.53;;
61911;SDS011;49973;52.084;5.412;2023-07-30T13:04:14;2.27;;;0.90;;
61911;SDS011;49973;52.084;5.412;2023-07-30T13:06:43;2.53;;;0.90;;
61911;SDS011;49973;52.084;5.412;2023-07-30T13:09:13;5.50;;;0.90;;
61911;SDS011;49973;52.084;5.412;2023-07-30T13:11:42;4.63;;;0.60;;
61911;SDS011;49973;52.084;5.412;2023-07-30T13:14:11;2.23;;;0.50;;
61911;SDS011;49973;52.084;5.412;2023-07-30T13:16:40;2.33;;;0.67;;
61911;SDS011;49973;52.084;5.412;2023-07-30T13:19:08;3.43;;;1.00;;
61911;SDS011;49973;52.084;5.412;2023-07-30T13:21:37;3.47;;;1.00;;
61911;SDS011;49973;52.084;5.412;2023-07-30T13:24:07;4.77;;;1.10;;
61911;SDS011;49973;52.084;5.412;2023-07-30T13:26:37;8.80;;;1.10;;
61911;SDS011;49973;52.084;5.412;2023-07-30T13:29:05;5.03;;;0.70;;
61911;SDS011;49973;52.084;5.412;2023-07-30T13:31:34;2.87;;;1.03;;
61911;SDS011;49973;52.084;5.412;2023-07-30T13:34:04;5.93;;;0.83;;
61911;SDS011;49973;52.084;5.412;2023-07-30T13:36:34;7.60;;;1.07;;
61911;SDS011;49973;52.084;5.412;2023-07-30T13:39:02;3.43;;;0.67;;
61911;SDS011;49973;52.084;5.412;2023-07-30T13:41:31;2.50;;;1.20;;
61911;SDS011;49973;52.084;5.412;2023-07-30T13:44:01;2.70;;;0.70;;
61911;SDS011;49973;52.084;5.412;2023-07-30T13:46:30;3.40;;;0.83;;
61911;SDS011;49973;52.084;5.412;2023-07-30T13:48:59;4.50;;;0.90;;
61911;SDS011;49973;52.084;5.412;2023-07-30T13:51:29;1.43;;;0.73;;
61911;SDS011;49973;52.084;5.412;2023-07-30T13:53:59;3.20;;;0.90;;
61911;SDS011;49973;52.084;5.412;2023-07-30T13:56:28;1.40;;;0.60;;
61911;SDS011;49973;52.084;5.412;2023-07-30T13:58:57;7.33;;;1.30;;
61911;SDS011;49973;52.084;5.412;2023-07-30T14:01:28;3.53;;;0.60;;
61911;SDS011;49973;52.084;5.412;2023-07-30T14:03:57;2.13;;;0.73;;
61911;SDS011;49973;52.084;5.412;2023-07-30T14:06:26;4.33;;;0.90;;
61911;SDS011;49973;52.084;5.412;2023-07-30T14:08:55;4.23;;;0.70;;
61911;SDS011;49973;52.084;5.412;2023-07-30T14:11:26;5.47;;;1.17;;
61911;SDS011;49973;52.084;5.412;2023-07-30T14:13:55;3.80;;;0.83;;
61911;SDS011;49973;52.084;5.412;2023-07-30T14:16:24;3.07;;;0.73;;
61911;SDS011;49973;52.084;5.412;2023-07-30T14:18:55;2.77;;;0.90;;
61911;SDS011;49973;52.084;5.412;2023-07-30T14:21:24;5.43;;;0.70;;
61911;SDS011;49973;52.084;5.412;2023-07-30T14:23:53;6.63;;;1.30;;
61911;SDS011;49973;52.084;5.412;2023-07-30T14:26:22;2.20;;;1.07;;
61911;SDS011;49973;52.084;5.412;2023-07-30T14:28:50;5.80;;;1.00;;
61911;SDS011;49973;52.084;5.412;2023-07-30T14:31:19;8.57;;;1.40;;
61911;SDS011;49973;52.084;5.412;2023-07-30T14:33:48;5.15;;;0.98;;
61911;SDS011;49973;52.084;5.412;2023-07-30T14:36:18;4.90;;;1.00;;
61911;SDS011;49973;52.084;5.412;2023-07-30T14:38:46;5.47;;;1.30;;
61911;SDS011;49973;52.084;5.412;2023-07-30T14:41:15;3.70;;;1.07;;
61911;SDS011;49973;52.084;5.412;2023-07-30T14:43:44;10.77;;;1.17;;
61911;SDS011;49973;52.084;5.412;2023-07-30T14:46:13;2.63;;;0.83;;
61911;SDS011;49973;52.084;5.412;2023-07-30T14:48:42;3.67;;;0.97;;
61911;SDS011;49973;52.084;5.412;2023-07-30T14:51:12;6.83;;;1.43;;
61911;SDS011;49973;52.084;5.412;2023-07-30T14:53:42;8.13;;;1.50;;
61911;SDS011;49973;52.084;5.412;2023-07-30T14:56:11;2.83;;;0.83;;
61911;SDS011;49973;52.084;5.412;2023-07-30T14:58:40;3.07;;;1.20;;